Time;durP1;ratioP1;P1;durP2;ratioP2;P2;SDS_P1;SDS_P2;PMS_P1;PMS_P2;Temp;Humidity;BMP_temperature;BMP_pressure;BME280_temperature;BME280_humidity;BME280_pressure;Samples;Min_cycle;Max_cycle;Signal;HPM_P1;HPM_P2
2023/04/23 00:02:12;;;;;;;50.20;24.90;;;;;;;8.71;65.70;99832.36;110244;1270;22486;-58
2023/04/23 00:04:49;;;;;;;49.50;26.30;;;;;;;8.68;65.71;99831.19;110218;1271;22217;-57
2023/04/23 00:07:21;;;;;;;47.80;24.30;;;;;;;8.64;65.61;99828.48;110196;1278;22299;-57
2023/04/23 00:09:56;;;;;;;45.90;25.50;;;;;;;8.61;65.80;99823.87;110157;1274;22231;-60
2023/04/23 00:12:29;;;;;;;50.60;24.10;;;;;;;8.58;65.95;99825.33;110195;1273;22380;-55
2023/04/23 00:15:01;;;;;;;41.70;23.10;;;;;;;8.54;66.20;99824.92;110232;1266;23002;-60
2023/04/23 00:17:32;;;;;;;44.90;23.70;;;;;;;8.48;66.27;99818.94;110205;1271;22330;-57
2023/04/23 00:20:05;;;;;;;42.80;22.00;;;;;;;8.43;66.13;99819.09;110214;1262;22426;-55
2023/04/23 00:22:36;;;;;;;44.30;21.60;;;;;;;8.40;66.30;99818.27;110193;1277;22227;-55
2023/04/23 00:25:08;;;;;;;36.80;20.70;;;;;;;8.37;66.29;99819.32;110180;1271;22171;-58
2023/04/23 00:27:39;;;;;;;48.10;22.90;;;;;;;8.34;66.38;99813.45;110220;1270;22198;-56
2023/04/23 00:30:11;;;;;;;39.20;19.60;;;;;;;8.31;66.51;99818.38;110205;1271;23447;-56
2023/04/23 00:32:43;;;;;;;43.30;21.30;;;;;;;8.27;66.48;99817.19;110191;1264;22180;-56
2023/04/23 00:35:14;;;;;;;41.20;19.20;;;;;;;8.24;66.36;99813.60;110222;1270;22219;-57
2023/04/23 00:37:45;;;;;;;41.30;19.30;;;;;;;8.22;66.52;99808.61;110236;1271;22162;-58
2023/04/23 00:40:16;;;;;;;41.40;19.70;;;;;;;8.20;66.53;99801.89;110259;1277;22727;-54
2023/04/23 00:42:47;;;;;;;40.40;19.60;;;;;;;8.17;66.85;99798.85;110276;1271;22413;-60
2023/04/23 00:45:19;;;;;;;36.90;18.30;;;;;;;8.15;66.85;99798.34;110312;1271;22269;-55
2023/04/23 00:47:49;;;;;;;39.80;18.00;;;;;;;8.12;67.03;99797.42;110256;1267;22241;-57
2023/04/23 00:50:20;;;;;;;40.00;18.60;;;;;;;8.09;67.05;99792.09;110229;1267;23230;-59
2023/04/23 00:52:51;;;;;;;37.90;18.50;;;;;;;8.06;67.17;99790.72;110213;1270;22489;-57
2023/04/23 00:55:22;;;;;;;42.30;19.70;;;;;;;8.04;67.30;99791.48;110230;1278;22619;-57
2023/04/23 00:57:54;;;;;;;44.60;19.70;;;;;;;8.02;67.27;99790.48;110234;1274;23127;-59
2023/04/23 01:00:25;;;;;;;37.00;17.90;;;;;;;8.00;67.43;99788.98;110262;1270;22236;-57
2023/04/23 01:02:57;;;;;;;41.10;19.20;;;;;;;7.99;67.54;99787.38;110196;1266;22214;-57
2023/04/23 01:05:28;;;;;;;37.40;17.70;;;;;;;7.97;67.44;99788.81;110224;1271;22987;-58
2023/04/23 01:07:59;;;;;;;36.90;18.30;;;;;;;7.95;67.60;99789.13;110219;1270;22257;-55
2023/04/23 01:10:31;;;;;;;35.40;16.80;;;;;;;7.93;67.74;99787.36;110231;1277;22257;-57
2023/04/23 01:13:02;;;;;;;40.90;18.30;;;;;;;7.91;67.80;99785.13;110267;1273;22900;-58
2023/04/23 01:15:33;;;;;;;38.40;17.40;;;;;;;7.88;68.05;99786.73;110230;1270;22218;-56
2023/04/23 01:18:06;;;;;;;37.60;17.20;;;;;;;7.85;67.92;99785.81;109763;1271;25473;-55
2023/04/23 01:20:38;;;;;;;39.10;17.50;;;;;;;7.82;68.19;99779.54;106431;1277;25287;-54
2023/04/23 01:23:09;;;;;;;36.50;17.50;;;;;;;7.79;68.26;99783.01;106435;1277;23907;-56
2023/04/23 01:25:40;;;;;;;38.70;18.00;;;;;;;7.76;68.45;99781.98;106530;1277;22507;-56
2023/04/23 01:28:11;;;;;;;35.30;17.70;;;;;;;7.72;68.54;99781.06;110221;1266;22233;-54
2023/04/23 01:30:45;;;;;;;37.90;17.90;;;;;;;7.68;68.69;99777.94;110280;1267;22389;-58
2023/04/23 01:33:16;;;;;;;34.20;17.30;;;;;;;7.64;68.80;99782.97;110220;1271;22171;-56
2023/04/23 01:35:50;;;;;;;38.50;17.10;;;;;;;7.60;68.96;99781.02;110161;1271;22193;-56
2023/04/23 01:38:22;;;;;;;38.40;15.90;;;;;;;7.57;68.75;99782.23;110224;1266;22224;-58
2023/04/23 01:40:53;;;;;;;34.10;16.20;;;;;;;7.55;68.83;99778.65;110199;1262;22444;-57
2023/04/23 01:43:25;;;;;;;37.30;16.20;;;;;;;7.55;68.95;99780.66;110273;1277;22142;-55
2023/04/23 01:45:57;;;;;;;30.60;15.60;;;;;;;7.54;69.04;99775.84;110284;1265;22236;-55
2023/04/23 01:48:28;;;;;;;38.10;17.50;;;;;;;7.52;69.16;99776.16;110267;1271;22244;-57
2023/04/23 01:50:59;;;;;;;30.60;15.70;;;;;;;7.49;69.18;99774.81;110179;1271;22242;-57
2023/04/23 01:53:31;;;;;;;32.60;15.90;;;;;;;7.48;69.05;99773.11;110187;1271;22296;-55
2023/04/23 01:56:02;;;;;;;37.90;15.40;;;;;;;7.47;69.29;99772.15;110223;1262;22400;-60
2023/04/23 01:58:33;;;;;;;36.40;15.90;;;;;;;7.46;69.42;99772.02;110212;1277;22372;-56
2023/04/23 02:01:04;;;;;;;37.00;15.90;;;;;;;7.45;69.39;99771.90;110230;1270;22223;-58
2023/04/23 02:03:35;;;;;;;33.40;16.10;;;;;;;7.44;69.55;99767.84;110274;1271;22548;-57
2023/04/23 02:06:06;;;;;;;33.10;15.50;;;;;;;7.43;69.53;99762.96;110266;1267;22279;-54
2023/04/23 02:08:37;;;;;;;34.30;16.40;;;;;;;7.41;69.63;99760.65;110262;1273;22228;-57
2023/04/23 02:11:08;;;;;;;41.50;17.10;;;;;;;7.39;69.79;99762.05;110172;1262;22194;-55
2023/04/23 02:13:39;;;;;;;35.70;16.60;;;;;;;7.36;69.90;99759.22;106458;1277;23221;-56
2023/04/23 02:16:11;;;;;;;35.80;15.60;;;;;;;7.33;69.93;99755.05;106492;1277;25983;-56
2023/04/23 02:18:42;;;;;;;34.80;15.90;;;;;;;7.32;70.11;99757.86;106568;1277;22663;-56
2023/04/23 02:21:13;;;;;;;33.50;16.90;;;;;;;7.29;70.23;99754.79;106481;1271;25314;-55
2023/04/23 02:23:44;;;;;;;34.20;16.50;;;;;;;7.25;70.11;99751.34;106471;1274;24224;-55
2023/04/23 02:26:15;;;;;;;36.80;16.40;;;;;;;7.23;70.32;99749.15;106488;1274;22619;-58
2023/04/23 02:28:45;;;;;;;34.00;17.00;;;;;;;7.21;70.32;99748.70;106527;1277;23135;-57
2023/04/23 02:31:19;;;;;;;34.50;16.50;;;;;;;7.19;70.13;99747.76;110238;1274;22165;-54
2023/04/23 02:33:50;;;;;;;35.20;15.80;;;;;;;7.17;70.32;99751.98;110259;1271;23048;-53
2023/04/23 02:36:21;;;;;;;35.00;16.30;;;;;;;7.15;70.41;99756.17;110269;1266;22221;-56
2023/04/23 02:38:52;;;;;;;35.10;15.30;;;;;;;7.12;70.39;99748.79;110267;1270;22920;-63
2023/04/23 02:41:22;;;;;;;33.20;15.70;;;;;;;7.10;70.56;99751.81;109460;1271;25382;-57
2023/04/23 02:43:53;;;;;;;34.10;15.40;;;;;;;7.08;70.50;99749.14;106437;1262;22658;-55
2023/04/23 02:46:24;;;;;;;35.10;16.90;;;;;;;7.07;70.59;99748.81;106553;1277;22537;-55
2023/04/23 02:48:55;;;;;;;37.00;17.50;;;;;;;7.04;70.68;99750.27;106389;1270;22574;-57
2023/04/23 02:51:26;;;;;;;36.10;15.80;;;;;;;7.01;70.55;99749.13;106450;1277;22556;-56
2023/04/23 02:53:57;;;;;;;35.90;17.50;;;;;;;7.00;70.84;99748.73;106399;1270;25336;-58
2023/04/23 02:56:28;;;;;;;39.10;17.20;;;;;;;6.97;70.92;99746.95;108485;1276;24299;-54
2023/04/23 02:59:00;;;;;;;38.50;16.90;;;;;;;6.94;71.11;99748.43;110176;1262;22168;-56
2023/04/23 03:01:31;;;;;;;35.10;16.00;;;;;;;6.90;71.18;99747.52;110215;1277;22296;-56
2023/04/23 03:04:02;;;;;;;38.30;17.30;;;;;;;6.85;71.42;99750.04;110210;1271;22428;-57
2023/04/23 03:06:34;;;;;;;33.30;15.40;;;;;;;6.82;71.30;99752.00;110185;1271;22286;-60
2023/04/23 03:09:06;;;;;;;34.20;15.70;;;;;;;6.81;71.41;99751.58;110286;1273;23344;-57
2023/04/23 03:11:37;;;;;;;36.30;15.70;;;;;;;6.79;71.50;99747.22;110168;1271;22163;-58
2023/04/23 03:14:08;;;;;;;34.10;16.40;;;;;;;6.78;71.62;99746.25;110175;1271;22289;-56
2023/04/23 03:16:39;;;;;;;37.10;17.10;;;;;;;6.76;71.70;99747.27;110219;1270;22272;-57
2023/04/23 03:19:10;;;;;;;31.90;16.30;;;;;;;6.76;71.62;99748.80;110288;1274;22155;-56
2023/04/23 03:21:41;;;;;;;37.50;17.00;;;;;;;6.74;71.69;99744.89;110187;1267;22151;-57
2023/04/23 03:24:13;;;;;;;33.00;16.60;;;;;;;6.73;71.84;99742.90;110258;1271;22217;-57
2023/04/23 03:26:44;;;;;;;41.40;17.00;;;;;;;6.73;71.94;99745.67;110246;1271;23040;-57
2023/04/23 03:29:15;;;;;;;29.80;15.40;;;;;;;6.72;71.99;99746.50;110215;1273;22234;-58
2023/04/23 03:31:46;;;;;;;34.10;16.10;;;;;;;6.72;72.01;99746.69;110219;1262;22154;-61
2023/04/23 03:34:17;;;;;;;38.30;17.10;;;;;;;6.70;72.04;99741.14;110201;1277;23065;-57
2023/04/23 03:36:49;;;;;;;32.60;15.30;;;;;;;6.70;72.17;99742.71;110210;1271;22298;-60
2023/04/23 03:39:20;;;;;;;37.70;16.20;;;;;;;6.70;72.18;99745.90;110283;1267;22967;-58
2023/04/23 03:41:51;;;;;;;37.00;16.30;;;;;;;6.70;72.18;99739.80;108048;1272;24298;-57
2023/04/23 03:44:22;;;;;;;35.30;17.80;;;;;;;6.69;72.20;99742.44;106445;1274;22665;-58
2023/04/23 03:46:53;;;;;;;35.40;15.70;;;;;;;6.69;72.22;99744.60;106421;1272;22585;-58
2023/04/23 03:49:24;;;;;;;34.20;16.30;;;;;;;6.67;72.30;99740.38;106496;1275;22575;-58
2023/04/23 03:51:55;;;;;;;37.70;18.10;;;;;;;6.67;72.49;99742.54;110198;1271;22213;-58
2023/04/23 03:54:27;;;;;;;32.90;16.40;;;;;;;6.65;72.51;99742.17;110205;1265;23302;-55
2023/04/23 03:56:58;;;;;;;36.60;18.00;;;;;;;6.63;72.58;99737.40;110196;1266;22346;-56
2023/04/23 03:59:29;;;;;;;37.10;17.40;;;;;;;6.62;72.52;99740.67;110189;1266;22165;-56
2023/04/23 04:02:00;;;;;;;33.60;15.80;;;;;;;6.62;72.68;99735.58;110183;1270;22890;-56
2023/04/23 04:04:30;;;;;;;35.90;15.80;;;;;;;6.61;72.68;99741.22;110194;1278;22401;-57
2023/04/23 04:07:01;;;;;;;38.00;17.10;;;;;;;6.62;72.68;99740.17;110196;1272;22207;-58
2023/04/23 04:09:32;;;;;;;39.80;17.80;;;;;;;6.60;73.00;99740.73;110254;1265;23236;-56
2023/04/23 04:12:04;;;;;;;39.20;17.40;;;;;;;6.58;72.94;99735.48;110261;1267;22135;-58
2023/04/23 04:14:34;;;;;;;33.90;17.30;;;;;;;6.60;73.04;99737.73;110210;1273;22372;-57
2023/04/23 04:17:06;;;;;;;35.20;17.10;;;;;;;6.60;73.23;99736.28;110194;1262;22216;-56
2023/04/23 04:19:37;;;;;;;38.20;17.60;;;;;;;6.61;73.43;99742.81;110235;1277;22420;-58
2023/04/23 04:22:08;;;;;;;34.70;17.60;;;;;;;6.60;73.52;99743.95;110151;1267;22151;-56
2023/04/23 04:24:40;;;;;;;35.20;16.50;;;;;;;6.61;73.49;99742.57;110191;1271;22337;-57
2023/04/23 04:27:11;;;;;;;34.90;17.20;;;;;;;6.63;73.49;99741.48;110208;1266;22249;-58
2023/04/23 04:29:42;;;;;;;36.90;18.10;;;;;;;6.65;73.59;99737.89;110255;1267;22201;-59
2023/04/23 04:32:13;;;;;;;38.00;17.90;;;;;;;6.67;73.86;99737.08;110183;1268;22125;-58
2023/04/23 04:34:44;;;;;;;35.20;17.60;;;;;;;6.69;73.88;99738.44;110213;1270;22222;-56
2023/04/23 04:37:15;;;;;;;39.90;18.70;;;;;;;6.72;74.06;99731.00;110210;1274;22231;-58
2023/04/23 04:39:46;;;;;;;34.50;17.30;;;;;;;6.75;74.32;99731.86;110217;1270;22261;-57
2023/04/23 04:42:17;;;;;;;39.80;18.50;;;;;;;6.79;74.24;99734.15;110265;1270;22154;-57
2023/04/23 04:44:48;;;;;;;41.70;18.90;;;;;;;6.83;74.53;99731.04;110265;1271;22224;-56
2023/04/23 04:47:20;;;;;;;35.90;19.00;;;;;;;6.88;74.65;99731.02;110191;1265;22200;-55
2023/04/23 04:49:50;;;;;;;39.20;18.00;;;;;;;6.94;75.04;99732.17;110150;1271;23080;-58
2023/04/23 04:52:21;;;;;;;39.70;19.00;;;;;;;7.01;75.09;99730.74;110217;1277;22660;-59
2023/04/23 04:54:52;;;;;;;36.40;18.40;;;;;;;7.08;75.11;99731.04;110181;1271;22237;-60
2023/04/23 04:57:23;;;;;;;36.40;17.70;;;;;;;7.16;75.40;99723.95;110277;1274;22255;-56
2023/04/23 04:59:54;;;;;;;40.00;18.80;;;;;;;7.23;75.72;99729.14;110248;1270;22517;-58
2023/04/23 05:02:25;;;;;;;41.20;18.40;;;;;;;7.33;75.92;99731.38;110209;1272;22187;-57
2023/04/23 05:04:56;;;;;;;38.50;18.40;;;;;;;7.42;75.94;99732.48;110204;1270;22342;-59
2023/04/23 05:07:27;;;;;;;39.30;18.10;;;;;;;7.51;76.18;99728.70;110232;1276;22207;-58
2023/04/23 05:09:57;;;;;;;35.40;18.00;;;;;;;7.63;76.33;99723.81;110277;1271;23306;-59
2023/04/23 05:12:28;;;;;;;38.40;19.00;;;;;;;7.75;76.33;99726.72;110268;1273;22226;-57
2023/04/23 05:14:59;;;;;;;35.10;18.20;;;;;;;7.86;76.61;99724.30;110202;1271;23553;-58
2023/04/23 05:17:30;;;;;;;40.70;19.60;;;;;;;8.00;76.53;99722.82;110218;1271;22312;-56
2023/04/23 05:20:01;;;;;;;38.30;19.40;;;;;;;8.11;76.52;99720.45;110250;1270;22333;-58
2023/04/23 05:22:32;;;;;;;36.60;18.40;;;;;;;8.22;76.55;99721.77;110242;1277;22208;-56
2023/04/23 05:25:04;;;;;;;36.30;18.80;;;;;;;8.36;76.84;99720.29;110266;1267;22233;-59
2023/04/23 05:27:35;;;;;;;37.40;17.70;;;;;;;8.47;76.67;99720.75;110266;1270;22154;-56
2023/04/23 05:30:08;;;;;;;36.70;18.30;;;;;;;8.59;76.63;99723.51;110219;1272;22397;-58
2023/04/23 05:32:39;;;;;;;35.10;16.50;;;;;;;8.71;76.71;99721.50;110254;1270;22151;-59
2023/04/23 05:35:11;;;;;;;33.50;17.50;;;;;;;8.83;76.66;99722.88;107055;1276;25349;-57
2023/04/23 05:37:42;;;;;;;35.30;18.10;;;;;;;8.94;76.53;99717.65;110316;1266;22198;-64
2023/04/23 05:40:13;;;;;;;38.50;17.60;;;;;;;9.08;76.71;99714.84;110289;1266;22292;-61
2023/04/23 05:42:45;;;;;;;32.20;17.40;;;;;;;9.20;76.25;99716.20;110243;1269;22214;-59
2023/04/23 05:45:16;;;;;;;33.20;16.90;;;;;;;9.30;76.45;99718.55;110079;1267;22233;-59
2023/04/23 05:47:47;;;;;;;32.70;16.90;;;;;;;9.40;76.55;99708.97;110219;1271;22366;-62
2023/04/23 05:50:18;;;;;;;33.50;15.50;;;;;;;9.54;76.52;99710.65;110216;1271;22392;-58
2023/04/23 05:52:49;;;;;;;34.70;17.40;;;;;;;9.64;76.48;99714.19;110291;1270;22443;-59
2023/04/23 05:55:20;;;;;;;33.30;16.30;;;;;;;9.76;76.39;99710.05;110236;1276;22156;-62
2023/04/23 05:57:51;;;;;;;38.10;18.30;;;;;;;9.90;76.79;99709.73;106149;1273;5421362;-62
2023/04/23 06:00:22;;;;;;;36.70;16.90;;;;;;;10.06;76.97;99715.08;110271;1274;22191;-61
2023/04/23 06:02:53;;;;;;;35.10;16.70;;;;;;;10.23;76.59;99710.27;110297;1267;22219;-63
2023/04/23 06:05:24;;;;;;;30.40;14.40;;;;;;;10.36;76.41;99708.25;110319;1267;22953;-63
2023/04/23 06:07:55;;;;;;;35.10;15.80;;;;;;;10.48;76.10;99708.67;110292;1270;23611;-62
2023/04/23 06:10:26;;;;;;;30.80;14.80;;;;;;;10.58;75.91;99704.21;110237;1275;22190;-62
2023/04/23 06:12:57;;;;;;;35.90;14.80;;;;;;;10.70;76.08;99705.51;110289;1271;22388;-61
2023/04/23 06:15:28;;;;;;;28.30;13.70;;;;;;;10.82;76.11;99708.06;110258;1271;22405;-61
2023/04/23 06:17:59;;;;;;;27.60;12.80;;;;;;;10.96;75.80;99702.34;110274;1271;23193;-62
2023/04/23 06:20:30;;;;;;;24.90;12.20;;;;;;;11.08;75.44;99698.98;110251;1274;22233;-60
2023/04/23 06:23:01;;;;;;;26.90;11.80;;;;;;;11.22;75.06;99697.64;110277;1270;23276;-60
2023/04/23 06:25:32;;;;;;;27.80;10.80;;;;;;;11.33;74.46;99702.14;110191;1271;22385;-61
2023/04/23 06:28:03;;;;;;;25.20;9.80;;;;;;;11.45;74.23;99699.37;110240;1264;22282;-63
2023/04/23 06:30:34;;;;;;;25.30;10.40;;;;;;;11.57;73.76;99696.40;110203;1268;22133;-59
2023/04/23 06:33:05;;;;;;;22.20;10.00;;;;;;;11.69;73.85;99698.02;110274;1273;22208;-61
2023/04/23 06:35:36;;;;;;;22.60;11.10;;;;;;;11.81;73.61;99704.66;110206;1267;22254;-60
2023/04/23 06:38:07;;;;;;;28.30;10.30;;;;;;;11.92;73.35;99704.81;110257;1269;23472;-60
2023/04/23 06:40:41;;;;;;;25.40;10.80;;;;;;;12.03;73.31;99701.15;110271;1276;22300;-59
2023/04/23 06:43:13;;;;;;;23.40;9.30;;;;;;;12.14;73.36;99695.81;110267;1273;22190;-57
2023/04/23 06:45:44;;;;;;;22.60;10.50;;;;;;;12.24;73.02;99697.38;110261;1273;22450;-60
2023/04/23 06:48:15;;;;;;;24.60;10.10;;;;;;;12.34;72.70;99694.35;110274;1271;22215;-58
2023/04/23 06:50:46;;;;;;;23.10;9.60;;;;;;;12.46;72.70;99692.49;110253;1271;23080;-59
2023/04/23 06:53:17;;;;;;;28.70;10.70;;;;;;;12.57;72.54;99687.64;110237;1273;22341;-60
2023/04/23 06:55:49;;;;;;;23.20;10.10;;;;;;;12.69;72.57;99687.26;110300;1270;22175;-60
2023/04/23 06:58:22;;;;;;;24.80;9.80;;;;;;;12.83;72.40;99684.11;110180;1278;22183;-60
2023/04/23 07:00:53;;;;;;;22.80;8.70;;;;;;;12.95;72.04;99677.15;110150;1274;22341;-58
2023/04/23 07:03:23;;;;;;;22.00;9.20;;;;;;;13.05;71.82;99677.02;110206;1277;22139;-61
2023/04/23 07:05:54;;;;;;;23.30;8.70;;;;;;;13.17;71.65;99675.39;110227;1266;22146;-59
2023/04/23 07:08:25;;;;;;;20.70;8.10;;;;;;;13.31;71.34;99674.61;110170;1271;22188;-60
2023/04/23 07:10:56;;;;;;;26.60;7.70;;;;;;;13.45;71.21;99666.19;110171;1270;22975;-60
2023/04/23 07:13:27;;;;;;;21.00;7.30;;;;;;;13.58;70.98;99662.63;110226;1274;23110;-59
2023/04/23 07:15:58;;;;;;;20.90;7.90;;;;;;;13.70;70.80;99658.73;110201;1268;23495;-60
2023/04/23 07:18:29;;;;;;;21.90;6.70;;;;;;;13.86;70.37;99660.30;108470;1274;25351;-59
2023/04/23 07:21:01;;;;;;;20.30;6.70;;;;;;;13.99;70.19;99655.42;106245;1263;22543;-58
2023/04/23 07:23:32;;;;;;;16.20;6.60;;;;;;;14.12;69.76;99649.79;106193;1274;24230;-59
2023/04/23 07:26:03;;;;;;;16.20;6.50;;;;;;;14.23;69.45;99649.23;106149;1271;22734;-56
2023/04/23 07:28:34;;;;;;;17.20;6.80;;;;;;;14.39;69.36;99650.04;110222;1277;23079;-59
2023/04/23 07:31:06;;;;;;;20.30;6.60;;;;;;;14.50;69.17;99645.92;110066;1269;22578;-59
2023/04/23 07:33:37;;;;;;;16.10;5.60;;;;;;;14.65;69.02;99646.20;110231;1274;22210;-61
2023/04/23 07:36:08;;;;;;;15.70;5.50;;;;;;;14.81;68.23;99641.13;110148;1273;22228;-60
2023/04/23 07:38:39;;;;;;;16.60;5.60;;;;;;;14.96;68.21;99641.05;110107;1273;22544;-60
2023/04/23 07:41:10;;;;;;;17.50;5.10;;;;;;;15.10;67.86;99643.27;110129;1271;22485;-60
2023/04/23 07:43:42;;;;;;;14.90;5.10;;;;;;;15.22;67.47;99640.01;110118;1278;23129;-61
2023/04/23 07:46:13;;;;;;;14.30;4.70;;;;;;;15.33;66.62;99641.38;110134;1278;22212;-61
2023/04/23 07:48:44;;;;;;;17.00;6.30;;;;;;;15.47;66.65;99641.11;110127;1277;22257;-60
2023/04/23 07:51:16;;;;;;;13.40;4.80;;;;;;;15.61;66.55;99641.89;106939;1274;25357;-60
2023/04/23 07:53:49;;;;;;;12.50;3.20;;;;;;;15.74;66.00;99638.16;106473;1276;24238;-60
2023/04/23 07:56:21;;;;;;;11.70;3.70;;;;;;;15.91;65.38;99636.33;110056;1274;22294;-59
2023/04/23 07:58:55;;;;;;;11.70;3.50;;;;;;;16.07;64.50;99632.58;110120;1271;22338;-60
2023/04/23 08:01:26;;;;;;;13.30;3.30;;;;;;;16.23;64.38;99631.14;110150;1273;22372;-59
2023/04/23 08:03:59;;;;;;;11.60;3.10;;;;;;;16.43;63.95;99629.89;110121;1266;22358;-61
2023/04/23 08:06:32;;;;;;;12.60;3.60;;;;;;;16.57;63.92;99631.56;110098;1272;22292;-61
2023/04/23 08:09:05;;;;;;;13.90;3.80;;;;;;;16.72;63.54;99625.99;110114;1276;22193;-59
2023/04/23 08:11:36;;;;;;;14.60;3.50;;;;;;;16.83;62.40;99623.56;110121;1276;22392;-60
2023/04/23 08:14:07;;;;;;;10.40;2.80;;;;;;;16.94;62.40;99626.62;110140;1264;22168;-60
2023/04/23 08:16:38;;;;;;;12.90;2.80;;;;;;;17.03;62.11;99618.52;110129;1278;23034;-61
2023/04/23 08:19:08;;;;;;;13.10;3.20;;;;;;;17.19;61.73;99620.14;110073;1273;22666;-59
2023/04/23 08:21:39;;;;;;;15.00;2.50;;;;;;;17.33;60.76;99624.14;110121;1267;22164;-59
2023/04/23 08:24:10;;;;;;;12.90;3.80;;;;;;;17.43;60.72;99616.91;110114;1264;22900;-60
2023/04/23 08:26:41;;;;;;;12.70;3.10;;;;;;;17.50;60.26;99620.05;110125;1274;22191;-62
2023/04/23 08:29:12;;;;;;;15.90;3.60;;;;;;;17.58;60.15;99617.69;110139;1269;22192;-61
2023/04/23 08:31:43;;;;;;;12.10;2.80;;;;;;;17.70;59.97;99614.79;110104;1267;22180;-61
2023/04/23 08:34:14;;;;;;;12.50;2.60;;;;;;;17.85;58.67;99614.84;110089;1278;22271;-61
2023/04/23 08:36:47;;;;;;;8.10;2.00;;;;;;;18.00;58.06;99612.17;110193;1270;22219;-61
2023/04/23 08:39:18;;;;;;;11.50;2.30;;;;;;;18.11;58.43;99603.77;110186;1271;22217;-62
2023/04/23 08:41:54;;;;;;;11.70;2.30;;;;;;;18.22;58.34;99601.48;110194;1270;22200;-61
2023/04/23 08:44:26;;;;;;;12.30;2.70;;;;;;;18.34;58.19;99600.84;110064;1276;22262;-60
2023/04/23 08:46:58;;;;;;;15.60;3.30;;;;;;;18.43;58.15;99595.11;110214;1264;22368;-60
2023/04/23 08:49:33;;;;;;;14.00;2.70;;;;;;;18.52;58.16;99594.50;110185;1274;22221;-59
2023/04/23 08:52:16;;;;;;;9.30;2.60;;;;;;;18.63;57.52;99593.00;110093;1270;23489;-60
2023/04/23 08:55:02;;;;;;;14.40;3.10;;;;;;;18.76;57.56;99593.91;107897;1270;22769;-61
2023/04/23 08:57:34;;;;;;;9.00;2.50;;;;;;;18.88;57.25;99586.44;109363;1276;22547;-61
2023/04/23 09:00:09;;;;;;;10.20;2.50;;;;;;;18.96;56.92;99581.20;106384;1266;26611;-62
2023/04/23 09:02:42;;;;;;;6.70;2.20;;;;;;;19.04;56.50;99576.44;110277;1267;22250;-61
2023/04/23 09:05:14;;;;;;;10.80;2.30;;;;;;;19.16;56.22;99575.25;110201;1263;22985;-60
2023/04/23 09:07:45;;;;;;;11.20;2.70;;;;;;;19.27;55.93;99576.87;110289;1270;22407;-61
2023/04/23 09:10:17;;;;;;;10.20;2.40;;;;;;;19.33;55.83;99568.48;110210;1276;22293;-61
2023/04/23 09:12:48;;;;;;;12.10;2.70;;;;;;;19.36;55.70;99567.75;110221;1264;22440;-61
2023/04/23 09:15:19;;;;;;;10.60;2.70;;;;;;;19.46;55.08;99569.17;110280;1270;22307;-62
2023/04/23 09:17:50;;;;;;;13.10;3.70;;;;;;;19.73;56.02;99569.78;110175;1270;23381;-62
2023/04/23 09:20:21;;;;;;;8.00;2.40;;;;;;;20.44;55.06;99569.05;110267;1270;22220;-60
2023/04/23 09:22:52;;;;;;;8.50;1.80;;;;;;;21.03;53.87;99567.05;110247;1270;22386;-62
2023/04/23 09:25:24;;;;;;;10.00;2.70;;;;;;;21.68;52.60;99565.23;110300;1276;23080;-62
2023/04/23 09:27:58;;;;;;;15.10;7.30;;;;;;;22.20;51.90;99564.27;107140;1270;22538;-62
2023/04/23 09:30:30;;;;;;;35.00;22.50;;;;;;;22.54;50.49;99567.42;106354;1255;22556;-63
2023/04/23 09:33:01;;;;;;;8.70;2.80;;;;;;;23.00;50.01;99564.63;110227;1267;22405;-62
2023/04/23 09:35:35;;;;;;;9.40;2.60;;;;;;;23.35;49.80;99562.92;110198;1263;22337;-61
2023/04/23 09:38:09;;;;;;;14.50;3.60;;;;;;;23.62;48.67;99563.80;110103;1270;22320;-64
2023/04/23 09:40:40;;;;;;;7.60;2.00;;;;;;;23.55;47.63;99562.44;110128;1275;22273;-62
2023/04/23 09:43:12;;;;;;;7.40;2.40;;;;;;;23.30;47.61;99563.52;110090;1267;22240;-62
2023/04/23 09:45:51;;;;;;;12.30;2.30;;;;;;;23.07;47.80;99564.80;110103;1274;22995;-63
2023/04/23 09:48:22;;;;;;;8.70;2.30;;;;;;;22.85;47.54;99558.83;110119;1274;22385;-62
2023/04/23 09:50:56;;;;;;;6.30;1.80;;;;;;;22.67;47.42;99556.23;110073;1274;22310;-61
2023/04/23 09:53:28;;;;;;;8.00;1.70;;;;;;;22.48;47.15;99550.83;110170;1276;22291;-61
2023/04/23 09:55:59;;;;;;;9.00;2.50;;;;;;;22.30;47.23;99551.13;110198;1256;23297;-60
2023/04/23 09:58:30;;;;;;;13.40;2.40;;;;;;;22.18;47.27;99545.20;110179;1267;22299;-62
2023/04/23 10:01:07;;;;;;;10.90;2.30;;;;;;;22.12;47.30;99544.14;110195;1266;22219;-61
2023/04/23 10:03:44;;;;;;;11.10;3.00;;;;;;;22.10;47.40;99545.73;110157;1273;22322;-62
2023/04/23 10:06:16;;;;;;;8.20;2.30;;;;;;;22.08;47.55;99547.41;110116;1273;22425;-62
2023/04/23 10:08:48;;;;;;;9.30;2.60;;;;;;;22.08;47.16;99544.91;110076;1274;22232;-61
2023/04/23 10:11:19;;;;;;;11.20;2.00;;;;;;;22.06;47.01;99549.50;110209;1270;22346;-62
2023/04/23 10:13:50;;;;;;;11.20;2.80;;;;;;;22.03;47.12;99546.27;110055;1270;23011;-62
2023/04/23 10:16:23;;;;;;;12.20;2.20;;;;;;;22.01;46.85;99540.23;110235;1278;22202;-61
2023/04/23 10:18:55;;;;;;;12.50;3.10;;;;;;;21.93;46.68;99545.51;110118;1273;22293;-62
2023/04/23 10:21:30;;;;;;;10.00;2.50;;;;;;;21.85;46.85;99543.11;110202;1273;22181;-62
2023/04/23 10:24:05;;;;;;;12.10;3.80;;;;;;;21.81;46.80;99543.08;110131;1266;23227;-63
2023/04/23 10:26:36;;;;;;;21.40;7.70;;;;;;;21.79;47.38;99541.22;110109;1267;22334;-62
2023/04/23 10:29:14;;;;;;;11.10;3.70;;;;;;;21.80;46.61;99541.40;110113;1270;22916;-62
2023/04/23 10:31:46;;;;;;;17.80;7.10;;;;;;;21.76;46.52;99539.00;107733;1273;25517;-63
2023/04/23 10:34:17;;;;;;;14.80;4.90;;;;;;;21.88;46.64;99540.23;105983;1277;22648;-63
2023/04/23 10:36:48;;;;;;;10.40;3.10;;;;;;;22.18;46.27;99536.23;106120;1277;25781;-62
2023/04/23 10:39:20;;;;;;;11.50;3.40;;;;;;;22.53;45.95;99529.27;106218;1273;22619;-63
2023/04/23 10:41:53;;;;;;;17.00;4.70;;;;;;;22.99;45.82;99539.63;106140;1273;22887;-63
2023/04/23 10:44:31;;;;;;;25.50;10.00;;;;;;;23.27;45.12;99540.19;110120;1276;22163;-63
2023/04/23 10:47:03;;;;;;;28.90;11.40;;;;;;;23.44;45.63;99536.77;110128;1271;23148;-63
2023/04/23 10:49:38;;;;;;;48.40;25.80;;;;;;;23.76;44.68;99536.92;110240;1271;22402;-63
2023/04/23 10:52:14;;;;;;;125.60;80.20;;;;;;;23.86;44.63;99541.86;110126;1273;22170;-63
2023/04/23 10:54:48;;;;;;;64.50;41.50;;;;;;;23.96;44.38;99542.27;108069;1270;22500;-63
2023/04/23 10:57:19;;;;;;;50.90;30.10;;;;;;;23.96;44.08;99550.22;106178;1266;22555;-63
2023/04/23 10:59:57;;;;;;;15.10;6.20;;;;;;;23.98;43.32;99548.13;106135;1264;25577;-64
2023/04/23 11:02:48;;;;;;;25.80;13.60;;;;;;;23.94;42.93;99551.20;110115;1271;22272;-65
2023/04/23 11:05:19;;;;;;;27.10;13.70;;;;;;;23.92;43.02;99549.62;110220;1271;22286;-64
2023/04/23 11:11:00;;;;;;;13.80;4.20;;;;;;;23.55;42.58;99551.77;103237;1305;546037;-62
2023/04/23 11:13:31;;;;;;;31.10;15.30;;;;;;;23.31;42.67;99553.73;105527;1263;26594;-64
2023/04/23 11:16:22;;;;;;;13.50;3.50;;;;;;;23.10;43.20;99554.85;105586;1273;22543;-62
2023/04/23 11:19:05;;;;;;;46.70;23.20;;;;;;;22.93;43.32;99552.36;109651;1273;22395;-62
2023/04/23 11:22:00;;;;;;;14.00;4.10;;;;;;;22.74;43.31;99551.84;109714;1280;22903;-62
2023/04/23 11:24:33;;;;;;;11.80;2.50;;;;;;;22.52;43.32;99552.02;105662;1277;5415034;-62
2023/04/23 11:27:07;;;;;;;11.00;3.30;;;;;;;22.38;43.62;99552.55;109853;1278;22135;-62
2023/04/23 11:29:39;;;;;;;19.10;4.70;;;;;;;22.29;43.89;99548.17;109814;1273;22289;-62
2023/04/23 11:32:12;;;;;;;10.50;2.60;;;;;;;22.23;44.14;99551.20;109838;1269;22284;-62
2023/04/23 11:34:44;;;;;;;13.20;2.40;;;;;;;22.20;44.04;99548.19;109867;1277;23131;-62
2023/04/23 11:37:16;;;;;;;14.60;2.40;;;;;;;22.14;44.08;99547.69;109869;1270;22285;-62
2023/04/23 11:39:48;;;;;;;11.20;2.20;;;;;;;22.12;44.27;99545.77;109827;1279;22302;-62
2023/04/23 11:42:20;;;;;;;9.10;2.80;;;;;;;22.11;44.50;99543.68;109836;1273;22264;-62